sensor_id;sensor_type;location;lat;lon;timestamp;temperature;humidity
40340;DHT22;26044;50.864;20.658;2023-07-09T00:02:42;16.10;99.90
40340;DHT22;26044;50.864;20.658;2023-07-09T00:05:59;16.10;99.90
40340;DHT22;26044;50.864;20.658;2023-07-09T00:08:59;16.00;99.90
40340;DHT22;26044;50.864;20.658;2023-07-09T00:12:32;16.00;99.90
40340;DHT22;26044;50.864;20.658;2023-07-09T00:15:14;16.00;99.90
40340;DHT22;26044;50.864;20.658;2023-07-09T00:18:38;16.00;99.90
40340;DHT22;26044;50.864;20.658;2023-07-09T00:21:51;16.00;99.90
40340;DHT22;26044;50.864;20.658;2023-07-09T00:24:29;15.90;99.90
40340;DHT22;26044;50.864;20.658;2023-07-09T00:27:25;15.90;99.90
40340;DHT22;26044;50.864;20.658;2023-07-09T00:30:39;15.80;99.90
40340;DHT22;26044;50.864;20.658;2023-07-09T00:33:25;15.80;99.90
40340;DHT22;26044;50.864;20.658;2023-07-09T00:39:32;15.80;99.90
40340;DHT22;26044;50.864;20.658;2023-07-09T00:42:08;15.80;99.90
40340;DHT22;26044;50.864;20.658;2023-07-09T00:44:53;15.80;99.90
40340;DHT22;26044;50.864;20.658;2023-07-09T00:48:04;15.90;99.90
40340;DHT22;26044;50.864;20.658;2023-07-09T00:50:54;15.90;99.90
40340;DHT22;26044;50.864;20.658;2023-07-09T00:53:40;15.90;99.90
40340;DHT22;26044;50.864;20.658;2023-07-09T00:56:43;15.90;99.90
40340;DHT22;26044;50.864;20.658;2023-07-09T00:59:50;15.90;99.90
40340;DHT22;26044;50.864;20.658;2023-07-09T01:02:48;15.80;99.90
40340;DHT22;26044;50.864;20.658;2023-07-09T01:05:43;15.80;99.90
40340;DHT22;26044;50.864;20.658;2023-07-09T01:08:35;15.60;99.90
40340;DHT22;26044;50.864;20.658;2023-07-09T01:11:22;15.60;99.90
40340;DHT22;26044;50.864;20.658;2023-07-09T01:14:12;15.70;99.90
40340;DHT22;26044;50.864;20.658;2023-07-09T01:17:16;15.60;99.90
40340;DHT22;26044;50.864;20.658;2023-07-09T01:20:03;15.60;99.90
40340;DHT22;26044;50.864;20.658;2023-07-09T01:23:47;15.50;99.90
40340;DHT22;26044;50.864;20.658;2023-07-09T01:26:52;15.50;99.90
40340;DHT22;26044;50.864;20.658;2023-07-09T01:33:10;15.30;99.90
40340;DHT22;26044;50.864;20.658;2023-07-09T01:35:42;15.20;99.90
40340;DHT22;26044;50.864;20.658;2023-07-09T01:42:22;15.20;99.90
40340;DHT22;26044;50.864;20.658;2023-07-09T01:45:15;15.10;99.90
40340;DHT22;26044;50.864;20.658;2023-07-09T02:04:32;15.10;99.90
40340;DHT22;26044;50.864;20.658;2023-07-09T06:36:55;21.40;99.90
40340;DHT22;26044;50.864;20.658;2023-07-09T06:40:02;21.90;99.90
40340;DHT22;26044;50.864;20.658;2023-07-09T06:42:29;22.10;99.90
40340;DHT22;26044;50.864;20.658;2023-07-09T06:44:56;22.10;99.90
40340;DHT22;26044;50.864;20.658;2023-07-09T06:47:26;22.20;99.90
40340;DHT22;26044;50.864;20.658;2023-07-09T06:49:53;22.30;99.90
40340;DHT22;26044;50.864;20.658;2023-07-09T06:52:21;22.30;99.90
40340;DHT22;26044;50.864;20.658;2023-07-09T06:54:50;22.50;99.80
40340;DHT22;26044;50.864;20.658;2023-07-09T06:57:17;22.60;98.30
40340;DHT22;26044;50.864;20.658;2023-07-09T06:59:46;22.70;99.90
40340;DHT22;26044;50.864;20.658;2023-07-09T07:02:14;22.80;99.80
40340;DHT22;26044;50.864;20.658;2023-07-09T07:04:41;22.90;99.90
40340;DHT22;26044;50.864;20.658;2023-07-09T07:07:13;23.00;99.90
40340;DHT22;26044;50.864;20.658;2023-07-09T07:33:09;23.90;79.30
40340;DHT22;26044;50.864;20.658;2023-07-09T07:35:37;23.90;77.00
40340;DHT22;26044;50.864;20.658;2023-07-09T07:38:29;24.00;77.20
40340;DHT22;26044;50.864;20.658;2023-07-09T07:42:11;24.20;71.40
40340;DHT22;26044;50.864;20.658;2023-07-09T08:00:42;24.70;63.00
40340;DHT22;26044;50.864;20.658;2023-07-09T08:08:09;24.90;60.30
40340;DHT22;26044;50.864;20.658;2023-07-09T08:30:22;25.50;58.20
40340;DHT22;26044;50.864;20.658;2023-07-09T12:49:26;27.80;50.00
40340;DHT22;26044;50.864;20.658;2023-07-09T12:52:32;27.90;48.20
40340;DHT22;26044;50.864;20.658;2023-07-09T12:55:22;28.00;48.00
40340;DHT22;26044;50.864;20.658;2023-07-09T12:57:56;28.30;47.60
40340;DHT22;26044;50.864;20.658;2023-07-09T13:00:48;28.40;46.10
40340;DHT22;26044;50.864;20.658;2023-07-09T13:03:51;28.40;47.40
40340;DHT22;26044;50.864;20.658;2023-07-09T13:06:42;28.50;48.50
40340;DHT22;26044;50.864;20.658;2023-07-09T13:10:03;28.50;46.60
40340;DHT22;26044;50.864;20.658;2023-07-09T13:12:46;28.50;46.50
40340;DHT22;26044;50.864;20.658;2023-07-09T13:18:49;28.40;46.20
40340;DHT22;26044;50.864;20.658;2023-07-09T13:28:54;28.20;47.00
40340;DHT22;26044;50.864;20.658;2023-07-09T13:32:20;28.10;46.50
40340;DHT22;26044;50.864;20.658;2023-07-09T13:35:49;28.00;46.00
40340;DHT22;26044;50.864;20.658;2023-07-09T13:38:59;27.90;45.70
40340;DHT22;26044;50.864;20.658;2023-07-09T13:45:43;27.80;46.20
40340;DHT22;26044;50.864;20.658;2023-07-09T13:51:58;27.80;46.50
40340;DHT22;26044;50.864;20.658;2023-07-09T13:55:07;27.70;46.50
40340;DHT22;26044;50.864;20.658;2023-07-09T13:57:52;27.70;45.60
40340;DHT22;26044;50.864;20.658;2023-07-09T14:00:49;27.60;45.60
40340;DHT22;26044;50.864;20.658;2023-07-09T14:10:59;27.70;49.60
40340;DHT22;26044;50.864;20.658;2023-07-09T14:13:52;27.70;46.10
40340;DHT22;26044;50.864;20.658;2023-07-09T14:17:03;27.60;45.80
40340;DHT22;26044;50.864;20.658;2023-07-09T14:20:19;27.60;46.30
40340;DHT22;26044;50.864;20.658;2023-07-09T14:23:30;27.60;46.40
40340;DHT22;26044;50.864;20.658;2023-07-09T14:26:55;27.60;46.80
40340;DHT22;26044;50.864;20.658;2023-07-09T14:29:42;27.50;47.40
40340;DHT22;26044;50.864;20.658;2023-07-09T14:32:34;27.50;47.20
40340;DHT22;26044;50.864;20.658;2023-07-09T14:35:02;27.40;46.50
40340;DHT22;26044;50.864;20.658;2023-07-09T14:37:30;27.40;47.10
40340;DHT22;26044;50.864;20.658;2023-07-09T14:39:57;27.40;46.20
40340;DHT22;26044;50.864;20.658;2023-07-09T14:42:26;27.50;47.00
40340;DHT22;26044;50.864;20.658;2023-07-09T14:44:53;27.40;47.30
40340;DHT22;26044;50.864;20.658;2023-07-09T14:47:21;27.40;47.10
40340;DHT22;26044;50.864;20.658;2023-07-09T14:49:49;27.30;46.60
40340;DHT22;26044;50.864;20.658;2023-07-09T14:52:19;27.40;47.00
40340;DHT22;26044;50.864;20.658;2023-07-09T14:54:48;27.30;46.90
40340;DHT22;26044;50.864;20.658;2023-07-09T14:57:19;27.20;46.00
40340;DHT22;26044;50.864;20.658;2023-07-09T14:59:48;27.20;46.50
40340;DHT22;26044;50.864;20.658;2023-07-09T15:02:36;27.20;46.40
40340;DHT22;26044;50.864;20.658;2023-07-09T15:05:09;27.20;47.20
40340;DHT22;26044;50.864;20.658;2023-07-09T15:07:38;27.20;47.10
40340;DHT22;26044;50.864;20.658;2023-07-09T15:10:05;27.20;46.80
40340;DHT22;26044;50.864;20.658;2023-07-09T15:12:35;27.20;47.10
40340;DHT22;26044;50.864;20.658;2023-07-09T15:17:39;27.20;46.50
40340;DHT22;26044;50.864;20.658;2023-07-09T15:20:13;27.20;46.10
40340;DHT22;26044;50.864;20.658;2023-07-09T15:22:41;27.20;46.70
40340;DHT22;26044;50.864;20.658;2023-07-09T15:25:13;27.20;47.10
40340;DHT22;26044;50.864;20.658;2023-07-09T15:27:41;27.20;46.70
40340;DHT22;26044;50.864;20.658;2023-07-09T15:30:34;27.10;46.60
40340;DHT22;26044;50.864;20.658;2023-07-09T15:36:45;27.20;46.00
40340;DHT22;26044;50.864;20.658;2023-07-09T15:39:51;27.20;46.60
40340;DHT22;26044;50.864;20.658;2023-07-09T15:46:27;27.20;46.70
40340;DHT22;26044;50.864;20.658;2023-07-09T15:48:58;27.10;46.60
40340;DHT22;26044;50.864;20.658;2023-07-09T15:51:25;27.20;45.60
40340;DHT22;26044;50.864;20.658;2023-07-09T15:53:52;27.10;46.10
40340;DHT22;26044;50.864;20.658;2023-07-09T15:56:27;27.10;45.90
40340;DHT22;26044;50.864;20.658;2023-07-09T15:58:59;27.10;46.10
40340;DHT22;26044;50.864;20.658;2023-07-09T16:01:58;27.10;45.90
40340;DHT22;26044;50.864;20.658;2023-07-09T16:08:54;27.10;45.50
40340;DHT22;26044;50.864;20.658;2023-07-09T16:15:49;27.20;45.70
40340;DHT22;26044;50.864;20.658;2023-07-09T16:19:39;27.10;45.70
40340;DHT22;26044;50.864;20.658;2023-07-09T16:22:54;27.20;46.20
40340;DHT22;26044;50.864;20.658;2023-07-09T16:26:07;27.20;45.80
40340;DHT22;26044;50.864;20.658;2023-07-09T16:28:44;27.30;45.30
40340;DHT22;26044;50.864;20.658;2023-07-09T16:31:11;27.30;45.30
40340;DHT22;26044;50.864;20.658;2023-07-09T16:33:42;27.20;45.30
40340;DHT22;26044;50.864;20.658;2023-07-09T16:36:17;27.20;45.30
40340;DHT22;26044;50.864;20.658;2023-07-09T16:38:46;27.20;45.60
40340;DHT22;26044;50.864;20.658;2023-07-09T16:41:13;27.20;45.40
40340;DHT22;26044;50.864;20.658;2023-07-09T16:43:40;27.20;45.90
40340;DHT22;26044;50.864;20.658;2023-07-09T16:46:20;27.20;46.00
40340;DHT22;26044;50.864;20.658;2023-07-09T16:48:53;27.30;46.50
40340;DHT22;26044;50.864;20.658;2023-07-09T16:51:23;27.30;46.30
40340;DHT22;26044;50.864;20.658;2023-07-09T16:53:50;27.30;46.20
40340;DHT22;26044;50.864;20.658;2023-07-09T16:56:18;27.30;46.70
40340;DHT22;26044;50.864;20.658;2023-07-09T16:58:45;27.30;46.70
40340;DHT22;26044;50.864;20.658;2023-07-09T17:01:12;27.20;46.60
40340;DHT22;26044;50.864;20.658;2023-07-09T17:03:39;27.20;46.60
40340;DHT22;26044;50.864;20.658;2023-07-09T17:06:08;27.20;46.50
40340;DHT22;26044;50.864;20.658;2023-07-09T17:08:41;27.30;47.20
40340;DHT22;26044;50.864;20.658;2023-07-09T17:11:13;27.30;46.00
40340;DHT22;26044;50.864;20.658;2023-07-09T17:13:40;27.30;46.00
40340;DHT22;26044;50.864;20.658;2023-07-09T17:16:07;27.20;46.10
40340;DHT22;26044;50.864;20.658;2023-07-09T17:18:34;27.20;45.70
40340;DHT22;26044;50.864;20.658;2023-07-09T17:21:02;27.10;45.90
40340;DHT22;26044;50.864;20.658;2023-07-09T17:23:30;27.10;46.00
40340;DHT22;26044;50.864;20.658;2023-07-09T17:25:58;27.10;45.10
40340;DHT22;26044;50.864;20.658;2023-07-09T17:28:30;27.10;45.50
40340;DHT22;26044;50.864;20.658;2023-07-09T17:30:59;27.10;45.50
40340;DHT22;26044;50.864;20.658;2023-07-09T17:33:29;27.10;45.20
40340;DHT22;26044;50.864;20.658;2023-07-09T17:35:59;27.20;45.80
40340;DHT22;26044;50.864;20.658;2023-07-09T17:38:34;26.90;45.50
40340;DHT22;26044;50.864;20.658;2023-07-09T17:41:03;27.00;46.50
40340;DHT22;26044;50.864;20.658;2023-07-09T17:43:30;26.80;46.20
40340;DHT22;26044;50.864;20.658;2023-07-09T17:45:57;26.60;46.00
40340;DHT22;26044;50.864;20.658;2023-07-09T17:48:28;26.70;46.80
40340;DHT22;26044;50.864;20.658;2023-07-09T17:50:56;26.60;46.70
40340;DHT22;26044;50.864;20.658;2023-07-09T17:53:28;26.40;46.80
40340;DHT22;26044;50.864;20.658;2023-07-09T17:55:56;26.40;48.40
40340;DHT22;26044;50.864;20.658;2023-07-09T17:58:26;26.20;47.00
40340;DHT22;26044;50.864;20.658;2023-07-09T18:01:01;25.90;46.90
40340;DHT22;26044;50.864;20.658;2023-07-09T18:03:28;25.80;47.10
40340;DHT22;26044;50.864;20.658;2023-07-09T18:05:56;25.60;46.90
40340;DHT22;26044;50.864;20.658;2023-07-09T18:08:23;25.50;47.60
40340;DHT22;26044;50.864;20.658;2023-07-09T18:10:50;25.30;48.20
40340;DHT22;26044;50.864;20.658;2023-07-09T18:13:21;25.20;48.90
40340;DHT22;26044;50.864;20.658;2023-07-09T18:15:55;25.10;49.40
40340;DHT22;26044;50.864;20.658;2023-07-09T18:22:12;24.80;50.40
40340;DHT22;26044;50.864;20.658;2023-07-09T18:24:43;24.70;51.00
40340;DHT22;26044;50.864;20.658;2023-07-09T18:30:44;24.50;51.10
40340;DHT22;26044;50.864;20.658;2023-07-09T18:36:54;24.30;51.70
40340;DHT22;26044;50.864;20.658;2023-07-09T18:39:54;24.10;53.20
40340;DHT22;26044;50.864;20.658;2023-07-09T18:43:36;24.10;54.50
40340;DHT22;26044;50.864;20.658;2023-07-09T18:46:59;23.90;53.20
40340;DHT22;26044;50.864;20.658;2023-07-09T18:49:39;23.70;56.40
40340;DHT22;26044;50.864;20.658;2023-07-09T18:52:15;23.50;58.50
40340;DHT22;26044;50.864;20.658;2023-07-09T18:54:53;23.40;59.90
40340;DHT22;26044;50.864;20.658;2023-07-09T18:57:20;23.40;58.60
40340;DHT22;26044;50.864;20.658;2023-07-09T19:00:02;23.20;59.60
40340;DHT22;26044;50.864;20.658;2023-07-09T19:02:39;23.20;59.00
40340;DHT22;26044;50.864;20.658;2023-07-09T19:05:16;23.00;58.50
40340;DHT22;26044;50.864;20.658;2023-07-09T19:07:44;22.80;57.60
40340;DHT22;26044;50.864;20.658;2023-07-09T19:10:22;22.90;60.40
40340;DHT22;26044;50.864;20.658;2023-07-09T19:12:55;22.70;56.90
40340;DHT22;26044;50.864;20.658;2023-07-09T19:15:26;22.70;56.50
40340;DHT22;26044;50.864;20.658;2023-07-09T19:17:56;22.80;57.20
40340;DHT22;26044;50.864;20.658;2023-07-09T19:20:27;22.70;56.10
40340;DHT22;26044;50.864;20.658;2023-07-09T19:23:17;22.60;60.60
40340;DHT22;26044;50.864;20.658;2023-07-09T19:26:07;22.50;59.80
40340;DHT22;26044;50.864;20.658;2023-07-09T19:28:54;22.30;62.00
40340;DHT22;26044;50.864;20.658;2023-07-09T19:31:33;22.10;62.70
40340;DHT22;26044;50.864;20.658;2023-07-09T19:34:08;22.00;62.60
40340;DHT22;26044;50.864;20.658;2023-07-09T19:36:47;21.90;63.90
40340;DHT22;26044;50.864;20.658;2023-07-09T19:39:30;21.90;64.80
40340;DHT22;26044;50.864;20.658;2023-07-09T19:42:42;21.80;65.80
40340;DHT22;26044;50.864;20.658;2023-07-09T19:45:56;21.70;65.00
40340;DHT22;26044;50.864;20.658;2023-07-09T19:48:28;21.60;66.20
40340;DHT22;26044;50.864;20.658;2023-07-09T19:51:00;21.50;66.30
40340;DHT22;26044;50.864;20.658;2023-07-09T19:53:36;21.50;68.80
40340;DHT22;26044;50.864;20.658;2023-07-09T19:56:11;21.30;67.50
